createdAt,value
2019-02-09T00:04:46.032Z,2.40
2019-02-09T00:09:50.901Z,2.50
2019-02-09T00:14:56.147Z,4.30
2019-02-09T00:20:02.076Z,4.77
2019-02-09T00:25:07.111Z,2.90
2019-02-09T00:30:12.452Z,4.50
2019-02-09T00:35:18.535Z,2.77
2019-02-09T00:40:23.443Z,2.03
2019-02-09T00:45:28.387Z,4.60
2019-02-09T00:50:33.099Z,3.20
2019-02-09T00:55:37.939Z,3.10
2019-02-09T01:00:43.212Z,4.57
2019-02-09T01:05:48.007Z,3.93
2019-02-09T01:10:52.745Z,4.87
2019-02-09T01:15:58.713Z,2.83
2019-02-09T01:21:04.719Z,5.20
2019-02-09T01:26:09.409Z,4.03
2019-02-09T01:31:15.408Z,2.47
2019-02-09T01:36:20.215Z,5.07
2019-02-09T01:41:25.728Z,4.13
2019-02-09T01:46:31.497Z,3.70
2019-02-09T01:51:36.705Z,4.43
2019-02-09T01:56:41.752Z,3.07
2019-02-09T02:01:46.523Z,4.13
2019-02-09T02:06:51.283Z,4.17
2019-02-09T02:11:56.212Z,3.27
2019-02-09T02:17:02.673Z,3.63
2019-02-09T02:22:07.500Z,2.60
2019-02-09T02:27:12.316Z,2.17
2019-02-09T02:32:18.368Z,3.37
2019-02-09T02:37:23.091Z,3.43
2019-02-09T02:42:29.228Z,3.07
2019-02-09T02:47:34.077Z,4.30
2019-02-09T02:52:39.024Z,2.33
2019-02-09T02:57:43.817Z,2.73
2019-02-09T03:02:50.151Z,3.37
2019-02-09T03:07:55.600Z,4.27
2019-02-09T03:13:00.706Z,4.23
2019-02-09T03:18:07.712Z,3.37
2019-02-09T03:23:12.576Z,5.83
2019-02-09T03:28:17.300Z,2.33
2019-02-09T03:33:22.141Z,2.63
2019-02-09T03:38:26.845Z,3.77
2019-02-09T03:43:31.693Z,3.27
2019-02-09T03:48:36.534Z,2.07
2019-02-09T03:53:45.044Z,2.53
2019-02-09T03:58:49.985Z,2.03
2019-02-09T04:03:55.065Z,3.63
2019-02-09T04:09:01.353Z,2.30
2019-02-09T04:14:09.699Z,2.50
2019-02-09T04:19:14.472Z,2.10
2019-02-09T04:24:19.264Z,5.67
2019-02-09T04:29:24.250Z,5.73
2019-02-09T04:34:29.017Z,3.07
2019-02-09T04:39:33.725Z,4.20
2019-02-09T04:44:40.917Z,1.97
2019-02-09T04:49:45.671Z,2.10
2019-02-09T04:54:50.676Z,1.43
2019-02-09T04:59:55.528Z,2.40
2019-02-09T05:05:00.537Z,2.50
2019-02-09T05:10:07.009Z,1.83
2019-02-09T05:15:13.729Z,1.87
2019-02-09T05:20:20.238Z,1.37
2019-02-09T05:25:25.171Z,1.63
2019-02-09T05:30:30.111Z,1.10
2019-02-09T05:35:36.418Z,1.30
2019-02-09T05:40:41.228Z,1.53
2019-02-09T05:45:45.985Z,0.50
2019-02-09T05:50:52.937Z,0.60
2019-02-09T05:56:00.634Z,1.07
2019-02-09T06:01:06.782Z,0.33
2019-02-09T06:06:11.441Z,0.83
2019-02-09T06:11:19.064Z,2.17
2019-02-09T06:16:22.697Z,1.80
2019-02-09T06:21:27.697Z,2.30
2019-02-09T06:26:32.899Z,2.23
2019-02-09T06:31:41.027Z,0.90
2019-02-09T06:36:48.496Z,2.17
2019-02-09T06:41:53.183Z,4.53
2019-02-09T06:46:57.865Z,1.10
2019-02-09T06:52:02.793Z,1.87
2019-02-09T06:57:07.999Z,1.70
2019-02-09T07:02:14.065Z,3.33
2019-02-09T07:07:20.425Z,2.60
2019-02-09T07:12:29.350Z,1.80
2019-02-09T07:17:36.109Z,2.07
2019-02-09T07:22:40.884Z,1.57
2019-02-09T07:27:47.984Z,2.57
2019-02-09T07:32:53.639Z,1.37
2019-02-09T07:37:58.476Z,2.10
2019-02-09T07:43:05.115Z,3.13
2019-02-09T07:48:09.996Z,3.03
2019-02-09T07:53:14.781Z,1.97
2019-02-09T07:58:22.554Z,4.70
2019-02-09T08:03:27.253Z,1.47
2019-02-09T08:08:32.167Z,1.80
2019-02-09T08:13:38.067Z,1.27
2019-02-09T08:18:42.883Z,3.37
2019-02-09T08:23:47.770Z,2.57
2019-02-09T08:28:54.837Z,3.77
2019-02-09T08:33:59.985Z,2.57
2019-02-09T08:39:08.170Z,3.10
2019-02-09T08:44:13.182Z,5.00
2019-02-09T08:49:19.671Z,3.23
2019-02-09T08:54:24.747Z,2.90
2019-02-09T08:59:50.002Z,2.33
2019-02-09T09:04:55.009Z,3.43
2019-02-09T09:09:59.790Z,2.83
2019-02-09T09:15:08.352Z,3.00
2019-02-09T09:20:25.108Z,4.83
2019-02-09T09:25:30.353Z,3.90
2019-02-09T09:30:35.216Z,3.10
2019-02-09T09:35:41.957Z,6.03
2019-02-09T09:40:49.760Z,4.10
2019-02-09T09:45:54.693Z,4.00
2019-02-09T09:51:00.992Z,2.93
2019-02-09T09:56:05.894Z,4.07
2019-02-09T10:01:11.937Z,5.47
2019-02-09T10:06:16.660Z,3.37
2019-02-09T10:11:21.530Z,4.33
2019-02-09T10:16:26.368Z,4.60
2019-02-09T10:21:31.224Z,3.27
2019-02-09T10:26:36.316Z,4.80
2019-02-09T10:31:42.825Z,5.90
2019-02-09T10:36:48.671Z,4.07
2019-02-09T10:41:53.577Z,4.67
2019-02-09T10:46:59.374Z,5.93
2019-02-09T10:52:05.916Z,7.40
2019-02-09T10:57:11.820Z,7.57
2019-02-09T11:02:16.824Z,5.57
2019-02-09T11:07:23.700Z,4.37
2019-02-09T11:12:29.562Z,5.97
2019-02-09T11:17:35.400Z,7.83
2019-02-09T11:22:46.395Z,4.93
2019-02-09T11:27:52.307Z,5.30
2019-02-09T11:33:02.030Z,8.33
2019-02-09T11:38:05.369Z,9.43
2019-02-09T11:43:10.326Z,6.57
2019-02-09T11:48:16.751Z,6.70
2019-02-09T11:53:23.426Z,5.77
2019-02-09T11:58:29.364Z,6.83
2019-02-09T12:03:34.188Z,6.37
2019-02-09T12:08:38.986Z,6.67
2019-02-09T12:13:43.760Z,9.77
2019-02-09T12:18:50.616Z,8.67
2019-02-09T12:23:55.831Z,6.50
2019-02-09T12:29:00.569Z,9.00
2019-02-09T12:34:05.775Z,4.50
2019-02-09T12:39:11.112Z,6.23
2019-02-09T12:44:16.149Z,8.10
2019-02-09T12:49:21.214Z,6.20
2019-02-09T12:54:27.346Z,7.17
2019-02-09T12:59:32.557Z,6.47
2019-02-09T13:04:37.277Z,9.17
2019-02-09T13:09:43.561Z,6.40
2019-02-09T13:14:48.330Z,6.90
2019-02-09T13:19:54.558Z,8.00
2019-02-09T13:24:59.362Z,5.37
2019-02-09T13:30:10.296Z,6.23
2019-02-09T13:35:15.607Z,5.87
2019-02-09T13:40:21.493Z,5.97
2019-02-09T13:45:31.956Z,6.00
2019-02-09T13:50:38.074Z,5.30
2019-02-09T14:01:41.336Z,6.37
2019-02-09T14:06:46.200Z,8.30
2019-02-09T14:11:51.229Z,6.57
2019-02-09T14:16:58.848Z,7.63
2019-02-09T14:22:03.671Z,7.43
2019-02-09T14:27:10.596Z,3.97
2019-02-09T14:32:15.707Z,5.90
2019-02-09T14:37:20.565Z,4.90
2019-02-09T14:42:28.781Z,9.63
2019-02-09T14:47:34.526Z,9.73
2019-02-09T14:52:39.607Z,6.13
2019-02-09T14:57:44.633Z,5.03
2019-02-09T15:02:53.950Z,3.60
2019-02-09T15:07:57.611Z,5.47
2019-02-09T15:13:03.496Z,5.97
2019-02-09T15:18:10.873Z,5.63
2019-02-09T15:23:17.423Z,5.17
2019-02-09T15:28:25.009Z,5.60
2019-02-09T15:33:30.410Z,10.87
2019-02-09T15:38:35.432Z,3.87
2019-02-09T15:43:40.709Z,3.23
2019-02-09T15:48:45.757Z,3.47
2019-02-09T15:53:50.732Z,4.50
2019-02-09T15:58:55.625Z,6.80
2019-02-09T16:04:01.620Z,5.13
2019-02-09T16:09:08.594Z,7.33
2019-02-09T16:14:15.420Z,6.57
2019-02-09T16:19:20.156Z,4.17
2019-02-09T16:24:27.388Z,5.17
2019-02-09T16:29:32.272Z,3.57
2019-02-09T16:34:40.264Z,7.37
2019-02-09T16:39:44.992Z,4.83
2019-02-09T16:44:50.372Z,3.63
2019-02-09T16:49:55.382Z,9.20
2019-02-09T16:55:00.198Z,7.87
2019-02-09T17:00:07.153Z,5.37
2019-02-09T17:05:12.130Z,6.97
2019-02-09T17:10:22.380Z,4.20
2019-02-09T17:15:27.286Z,4.60
2019-02-09T17:20:32.168Z,3.83
2019-02-09T17:25:37.257Z,7.03
2019-02-09T17:30:43.298Z,5.13
2019-02-09T17:35:50.599Z,5.43
2019-02-09T17:40:55.384Z,5.50
2019-02-09T17:46:07.372Z,7.13
2019-02-09T17:51:12.520Z,3.93
2019-02-09T17:56:17.350Z,4.77
2019-02-09T18:01:22.600Z,3.27
2019-02-09T18:06:27.646Z,5.20
2019-02-09T18:11:32.970Z,3.83
2019-02-09T18:16:38.004Z,4.87
2019-02-09T18:21:42.921Z,3.30
2019-02-09T18:38:16.728Z,3.43
2019-02-09T18:43:22.128Z,5.63
2019-02-09T18:48:28.259Z,2.37
2019-02-09T18:53:34.358Z,5.73
2019-02-09T18:58:40.986Z,3.83
2019-02-09T19:03:45.817Z,5.17
2019-02-09T19:08:50.592Z,5.50
2019-02-09T19:13:56.382Z,3.13
2019-02-09T19:19:01.592Z,4.20
2019-02-09T19:35:36.922Z,3.83
2019-02-09T19:40:43.428Z,3.87
2019-02-09T19:45:48.530Z,9.10
2019-02-09T19:50:54.124Z,6.53
2019-02-09T19:56:00.498Z,4.80
2019-02-09T20:01:05.384Z,5.87
2019-02-09T20:06:10.211Z,6.07
2019-02-09T20:11:15.016Z,6.17
2019-02-09T20:16:21.424Z,5.23
2019-02-09T20:21:27.549Z,4.87
2019-02-09T20:26:32.361Z,4.33
2019-02-09T20:31:38.078Z,6.10
2019-02-09T20:36:43.205Z,3.93
2019-02-09T20:41:48.218Z,4.00
2019-02-09T20:46:53.064Z,5.70
2019-02-09T20:51:58.329Z,4.10
2019-02-09T20:57:04.403Z,5.00
2019-02-09T21:02:21.878Z,7.53
2019-02-09T21:07:24.108Z,3.60
2019-02-09T21:12:23.678Z,4.37
2019-02-09T21:17:28.492Z,3.77
2019-02-09T21:22:33.532Z,3.03
2019-02-09T21:27:38.256Z,5.10
2019-02-09T21:32:44.620Z,4.70
2019-02-09T21:37:51.124Z,6.03
2019-02-09T21:42:56.130Z,8.83
2019-02-09T21:48:00.944Z,5.00
2019-02-09T21:53:08.036Z,6.40
2019-02-09T21:58:13.073Z,5.83
2019-02-09T22:03:17.956Z,6.70
2019-02-09T22:08:22.932Z,6.70
2019-02-09T22:13:27.916Z,6.40
2019-02-09T22:18:35.269Z,3.93
2019-02-09T22:23:40.130Z,5.40
2019-02-09T22:28:46.480Z,7.63
2019-02-09T22:33:51.193Z,3.97
2019-02-09T22:38:55.957Z,6.33
2019-02-09T22:44:00.779Z,3.07
2019-02-09T22:49:08.227Z,5.37
2019-02-09T22:54:13.017Z,6.27
2019-02-09T22:59:19.398Z,4.97
2019-02-09T23:04:52.707Z,11.47
2019-02-09T23:09:59.221Z,7.90
2019-02-09T23:15:07.935Z,5.73
2019-02-09T23:20:14.136Z,5.70
2019-02-09T23:25:18.948Z,6.13
2019-02-09T23:30:24.949Z,6.97
2019-02-09T23:35:29.640Z,5.30
2019-02-09T23:40:36.011Z,6.43
2019-02-09T23:45:42.285Z,5.53
2019-02-09T23:50:47.941Z,6.47
2019-02-09T23:55:55.671Z,9.27
